sensor_id;sensor_type;location;lat;lon;timestamp;temperature;humidity
68977;SHT31;56029;52.568;13.588;2023-07-20T00:01:52;15.41;97.09
68977;SHT31;56029;52.568;13.588;2023-07-20T00:04:18;15.38;97.14
68977;SHT31;56029;52.568;13.588;2023-07-20T00:06:43;15.35;97.11
68977;SHT31;56029;52.568;13.588;2023-07-20T00:09:09;15.35;97.16
68977;SHT31;56029;52.568;13.588;2023-07-20T00:11:38;15.35;97.05
68977;SHT31;56029;52.568;13.588;2023-07-20T00:14:05;15.35;96.98
68977;SHT31;56029;52.568;13.588;2023-07-20T00:16:30;15.34;97.00
68977;SHT31;56029;52.568;13.588;2023-07-20T00:18:56;15.40;96.72
68977;SHT31;56029;52.568;13.588;2023-07-20T00:21:25;15.34;96.89
68977;SHT31;56029;52.568;13.588;2023-07-20T00:23:50;15.35;96.93
68977;SHT31;56029;52.568;13.588;2023-07-20T00:26:16;15.35;96.88
68977;SHT31;56029;52.568;13.588;2023-07-20T00:28:43;15.37;96.92
68977;SHT31;56029;52.568;13.588;2023-07-20T00:31:09;15.35;96.98
68977;SHT31;56029;52.568;13.588;2023-07-20T00:33:34;15.34;97.03
68977;SHT31;56029;52.568;13.588;2023-07-20T00:36:00;15.30;97.23
68977;SHT31;56029;52.568;13.588;2023-07-20T00:38:25;15.30;97.13
68977;SHT31;56029;52.568;13.588;2023-07-20T00:40:51;15.27;97.20
68977;SHT31;56029;52.568;13.588;2023-07-20T00:43:19;15.30;97.21
68977;SHT31;56029;52.568;13.588;2023-07-20T00:45:45;15.30;97.15
68977;SHT31;56029;52.568;13.588;2023-07-20T00:48:10;15.30;97.23
68977;SHT31;56029;52.568;13.588;2023-07-20T00:50:36;15.26;97.25
68977;SHT31;56029;52.568;13.588;2023-07-20T00:53:03;15.27;97.22
68977;SHT31;56029;52.568;13.588;2023-07-20T00:55:31;15.23;97.31
68977;SHT31;56029;52.568;13.588;2023-07-20T00:57:57;15.23;97.42
68977;SHT31;56029;52.568;13.588;2023-07-20T01:00:23;15.19;97.44
68977;SHT31;56029;52.568;13.588;2023-07-20T01:02:53;15.16;97.48
68977;SHT31;56029;52.568;13.588;2023-07-20T01:05:20;15.13;97.57
68977;SHT31;56029;52.568;13.588;2023-07-20T01:07:53;15.13;97.77
68977;SHT31;56029;52.568;13.588;2023-07-20T01:10:40;15.13;97.68
68977;SHT31;56029;52.568;13.588;2023-07-20T01:13:09;15.08;97.47
68977;SHT31;56029;52.568;13.588;2023-07-20T01:15:35;15.02;97.17
68977;SHT31;56029;52.568;13.588;2023-07-20T01:18:00;14.99;97.47
68977;SHT31;56029;52.568;13.588;2023-07-20T01:20:31;14.99;97.49
68977;SHT31;56029;52.568;13.588;2023-07-20T01:23:26;14.90;97.42
68977;SHT31;56029;52.568;13.588;2023-07-20T01:26:11;14.86;97.44
68977;SHT31;56029;52.568;13.588;2023-07-20T01:29:02;14.84;97.51
68977;SHT31;56029;52.568;13.588;2023-07-20T01:31:33;14.89;97.64
68977;SHT31;56029;52.568;13.588;2023-07-20T01:34:01;14.93;97.29
68977;SHT31;56029;52.568;13.588;2023-07-20T01:36:35;14.94;97.21
68977;SHT31;56029;52.568;13.588;2023-07-20T01:39:01;14.99;97.22
68977;SHT31;56029;52.568;13.588;2023-07-20T01:41:27;15.00;96.98
68977;SHT31;56029;52.568;13.588;2023-07-20T01:43:53;15.02;96.83
68977;SHT31;56029;52.568;13.588;2023-07-20T01:46:22;15.04;96.80
68977;SHT31;56029;52.568;13.588;2023-07-20T01:48:48;15.06;96.82
68977;SHT31;56029;52.568;13.588;2023-07-20T01:51:13;15.11;96.85
68977;SHT31;56029;52.568;13.588;2023-07-20T01:53:39;15.16;96.98
68977;SHT31;56029;52.568;13.588;2023-07-20T01:56:05;15.19;96.71
68977;SHT31;56029;52.568;13.588;2023-07-20T01:58:30;15.17;96.89
68977;SHT31;56029;52.568;13.588;2023-07-20T02:00:56;15.27;96.87
68977;SHT31;56029;52.568;13.588;2023-07-20T02:03:21;15.27;96.90
68977;SHT31;56029;52.568;13.588;2023-07-20T02:05:51;15.23;96.80
68977;SHT31;56029;52.568;13.588;2023-07-20T02:08:17;15.17;96.85
68977;SHT31;56029;52.568;13.588;2023-07-20T02:10:47;15.13;97.16
68977;SHT31;56029;52.568;13.588;2023-07-20T02:13:13;15.08;97.21
68977;SHT31;56029;52.568;13.588;2023-07-20T02:15:38;15.02;97.46
68977;SHT31;56029;52.568;13.588;2023-07-20T02:18:04;15.06;97.46
68977;SHT31;56029;52.568;13.588;2023-07-20T02:20:30;15.07;97.48
68977;SHT31;56029;52.568;13.588;2023-07-20T02:22:55;15.13;97.43
68977;SHT31;56029;52.568;13.588;2023-07-20T02:25:21;15.10;97.44
68977;SHT31;56029;52.568;13.588;2023-07-20T02:27:47;15.06;97.15
68977;SHT31;56029;52.568;13.588;2023-07-20T02:30:12;14.97;97.16
68977;SHT31;56029;52.568;13.588;2023-07-20T02:32:39;14.94;97.38
68977;SHT31;56029;52.568;13.588;2023-07-20T02:35:05;14.92;97.80
68977;SHT31;56029;52.568;13.588;2023-07-20T02:37:31;14.93;97.70
68977;SHT31;56029;52.568;13.588;2023-07-20T02:39:58;14.94;97.81
68977;SHT31;56029;52.568;13.588;2023-07-20T02:42:23;14.99;97.90
68977;SHT31;56029;52.568;13.588;2023-07-20T02:44:55;14.99;97.73
68977;SHT31;56029;52.568;13.588;2023-07-20T02:47:21;15.00;97.67
68977;SHT31;56029;52.568;13.588;2023-07-20T02:49:46;15.06;97.73
68977;SHT31;56029;52.568;13.588;2023-07-20T02:52:14;15.06;97.41
68977;SHT31;56029;52.568;13.588;2023-07-20T02:54:40;15.03;97.41
68977;SHT31;56029;52.568;13.588;2023-07-20T02:57:05;15.00;97.31
68977;SHT31;56029;52.568;13.588;2023-07-20T02:59:31;14.93;97.76
68977;SHT31;56029;52.568;13.588;2023-07-20T03:01:57;14.90;97.82
68977;SHT31;56029;52.568;13.588;2023-07-20T03:04:25;14.80;97.89
68977;SHT31;56029;52.568;13.588;2023-07-20T03:06:51;14.82;98.32
68977;SHT31;56029;52.568;13.588;2023-07-20T03:09:17;14.80;98.17
68977;SHT31;56029;52.568;13.588;2023-07-20T03:11:42;14.76;98.31
68977;SHT31;56029;52.568;13.588;2023-07-20T03:14:08;14.82;98.42
68977;SHT31;56029;52.568;13.588;2023-07-20T03:16:33;14.80;98.01
68977;SHT31;56029;52.568;13.588;2023-07-20T03:19:00;14.79;98.38
68977;SHT31;56029;52.568;13.588;2023-07-20T03:21:28;14.82;98.54
68977;SHT31;56029;52.568;13.588;2023-07-20T03:23:54;14.82;98.36
68977;SHT31;56029;52.568;13.588;2023-07-20T03:26:20;14.77;98.29
68977;SHT31;56029;52.568;13.588;2023-07-20T03:28:45;14.75;98.03
68977;SHT31;56029;52.568;13.588;2023-07-20T03:31:11;14.77;98.06
68977;SHT31;56029;52.568;13.588;2023-07-20T03:33:37;14.71;98.12
68977;SHT31;56029;52.568;13.588;2023-07-20T03:36:02;14.66;98.27
68977;SHT31;56029;52.568;13.588;2023-07-20T03:38:28;14.62;98.42
68977;SHT31;56029;52.568;13.588;2023-07-20T03:40:56;14.65;98.66
68977;SHT31;56029;52.568;13.588;2023-07-20T03:43:22;14.63;98.73
68977;SHT31;56029;52.568;13.588;2023-07-20T03:45:49;14.62;98.74
68977;SHT31;56029;52.568;13.588;2023-07-20T03:48:17;14.61;98.85
68977;SHT31;56029;52.568;13.588;2023-07-20T03:50:46;14.61;98.98
68977;SHT31;56029;52.568;13.588;2023-07-20T03:53:12;14.58;99.39
68977;SHT31;56029;52.568;13.588;2023-07-20T03:55:38;14.54;99.36
68977;SHT31;56029;52.568;13.588;2023-07-20T03:58:06;14.56;99.52
68977;SHT31;56029;52.568;13.588;2023-07-20T04:00:32;14.55;99.66
68977;SHT31;56029;52.568;13.588;2023-07-20T04:02:58;14.56;99.65
68977;SHT31;56029;52.568;13.588;2023-07-20T04:05:24;14.58;99.78
68977;SHT31;56029;52.568;13.588;2023-07-20T04:07:50;14.63;99.51
68977;SHT31;56029;52.568;13.588;2023-07-20T04:10:16;14.66;99.44
68977;SHT31;56029;52.568;13.588;2023-07-20T04:12:42;14.72;99.28
68977;SHT31;56029;52.568;13.588;2023-07-20T04:15:09;14.71;99.25
68977;SHT31;56029;52.568;13.588;2023-07-20T04:17:34;14.73;99.25
68977;SHT31;56029;52.568;13.588;2023-07-20T04:20:00;14.76;99.19
68977;SHT31;56029;52.568;13.588;2023-07-20T04:22:26;14.80;99.14
68977;SHT31;56029;52.568;13.588;2023-07-20T04:24:52;14.84;99.16
68977;SHT31;56029;52.568;13.588;2023-07-20T04:27:18;14.82;98.79
68977;SHT31;56029;52.568;13.588;2023-07-20T04:29:43;14.87;98.64
68977;SHT31;56029;52.568;13.588;2023-07-20T04:32:09;14.90;98.57
68977;SHT31;56029;52.568;13.588;2023-07-20T04:34:35;14.92;98.22
68977;SHT31;56029;52.568;13.588;2023-07-20T04:37:04;14.97;98.40
68977;SHT31;56029;52.568;13.588;2023-07-20T04:39:29;15.00;98.10
68977;SHT31;56029;52.568;13.588;2023-07-20T04:41:56;14.96;98.02
68977;SHT31;56029;52.568;13.588;2023-07-20T04:44:22;14.99;97.81
68977;SHT31;56029;52.568;13.588;2023-07-20T04:46:47;15.00;97.78
68977;SHT31;56029;52.568;13.588;2023-07-20T04:49:13;15.04;97.91
68977;SHT31;56029;52.568;13.588;2023-07-20T04:51:39;15.10;97.52
68977;SHT31;56029;52.568;13.588;2023-07-20T04:54:04;15.08;97.52
68977;SHT31;56029;52.568;13.588;2023-07-20T04:56:30;15.13;97.29
68977;SHT31;56029;52.568;13.588;2023-07-20T04:58:56;15.14;96.97
68977;SHT31;56029;52.568;13.588;2023-07-20T05:01:23;15.20;97.03
68977;SHT31;56029;52.568;13.588;2023-07-20T05:03:48;15.31;96.70
68977;SHT31;56029;52.568;13.588;2023-07-20T05:06:15;15.37;96.28
68977;SHT31;56029;52.568;13.588;2023-07-20T05:08:41;15.47;95.84
68977;SHT31;56029;52.568;13.588;2023-07-20T05:11:06;15.48;95.69
68977;SHT31;56029;52.568;13.588;2023-07-20T05:13:33;15.48;95.55
68977;SHT31;56029;52.568;13.588;2023-07-20T05:15:58;15.44;95.69
68977;SHT31;56029;52.568;13.588;2023-07-20T05:18:24;15.45;95.46
68977;SHT31;56029;52.568;13.588;2023-07-20T05:20:50;15.44;95.35
68977;SHT31;56029;52.568;13.588;2023-07-20T05:23:19;15.44;95.37
68977;SHT31;56029;52.568;13.588;2023-07-20T05:25:54;15.48;95.42
68977;SHT31;56029;52.568;13.588;2023-07-20T05:28:20;15.50;95.01
68977;SHT31;56029;52.568;13.588;2023-07-20T05:30:45;15.47;94.53
68977;SHT31;56029;52.568;13.588;2023-07-20T05:33:11;15.48;94.71
68977;SHT31;56029;52.568;13.588;2023-07-20T05:35:37;15.59;95.20
68977;SHT31;56029;52.568;13.588;2023-07-20T05:38:03;15.65;94.04
68977;SHT31;56029;52.568;13.588;2023-07-20T05:40:31;15.66;93.80
68977;SHT31;56029;52.568;13.588;2023-07-20T05:42:56;15.81;93.57
68977;SHT31;56029;52.568;13.588;2023-07-20T05:45:22;15.85;93.31
68977;SHT31;56029;52.568;13.588;2023-07-20T05:47:48;15.98;93.19
68977;SHT31;56029;52.568;13.588;2023-07-20T05:50:14;16.19;92.60
68977;SHT31;56029;52.568;13.588;2023-07-20T05:52:40;16.19;92.56
68977;SHT31;56029;52.568;13.588;2023-07-20T05:55:06;16.19;92.09
68977;SHT31;56029;52.568;13.588;2023-07-20T05:57:32;16.27;91.99
68977;SHT31;56029;52.568;13.588;2023-07-20T05:59:58;16.31;92.53
68977;SHT31;56029;52.568;13.588;2023-07-20T06:02:24;16.40;92.21
68977;SHT31;56029;52.568;13.588;2023-07-20T06:04:52;16.50;91.69
68977;SHT31;56029;52.568;13.588;2023-07-20T06:07:19;16.57;91.61
68977;SHT31;56029;52.568;13.588;2023-07-20T06:09:45;16.56;91.18
68977;SHT31;56029;52.568;13.588;2023-07-20T06:12:11;16.34;90.41
68977;SHT31;56029;52.568;13.588;2023-07-20T06:14:37;16.33;90.98
68977;SHT31;56029;52.568;13.588;2023-07-20T06:17:02;16.61;90.97
68977;SHT31;56029;52.568;13.588;2023-07-20T06:19:28;16.89;90.95
68977;SHT31;56029;52.568;13.588;2023-07-20T06:21:54;17.09;90.24
68977;SHT31;56029;52.568;13.588;2023-07-20T06:24:19;17.02;89.87
68977;SHT31;56029;52.568;13.588;2023-07-20T06:26:45;16.85;89.32
68977;SHT31;56029;52.568;13.588;2023-07-20T06:29:11;16.63;89.68
68977;SHT31;56029;52.568;13.588;2023-07-20T06:31:36;16.61;90.78
68977;SHT31;56029;52.568;13.588;2023-07-20T06:34:02;16.74;90.02
68977;SHT31;56029;52.568;13.588;2023-07-20T06:36:28;16.88;89.66
68977;SHT31;56029;52.568;13.588;2023-07-20T06:38:57;16.81;88.82
68977;SHT31;56029;52.568;13.588;2023-07-20T06:41:23;16.82;88.40
68977;SHT31;56029;52.568;13.588;2023-07-20T06:43:50;16.99;87.76
68977;SHT31;56029;52.568;13.588;2023-07-20T06:46:15;17.11;88.05
68977;SHT31;56029;52.568;13.588;2023-07-20T06:48:41;17.11;87.41
68977;SHT31;56029;52.568;13.588;2023-07-20T06:51:06;17.18;87.66
68977;SHT31;56029;52.568;13.588;2023-07-20T06:53:32;17.12;86.80
68977;SHT31;56029;52.568;13.588;2023-07-20T06:55:57;17.11;86.57
68977;SHT31;56029;52.568;13.588;2023-07-20T06:58:23;17.01;86.76
68977;SHT31;56029;52.568;13.588;2023-07-20T07:00:52;16.89;86.38
68977;SHT31;56029;52.568;13.588;2023-07-20T07:03:18;17.01;87.48
68977;SHT31;56029;52.568;13.588;2023-07-20T07:05:44;17.05;86.72
68977;SHT31;56029;52.568;13.588;2023-07-20T07:08:11;16.98;86.05
68977;SHT31;56029;52.568;13.588;2023-07-20T07:10:37;16.96;85.70
68977;SHT31;56029;52.568;13.588;2023-07-20T07:13:03;16.95;86.05
68977;SHT31;56029;52.568;13.588;2023-07-20T07:15:29;17.09;86.35
68977;SHT31;56029;52.568;13.588;2023-07-20T07:17:54;17.12;84.03
68977;SHT31;56029;52.568;13.588;2023-07-20T07:20:21;17.07;83.92
68977;SHT31;56029;52.568;13.588;2023-07-20T07:22:46;16.98;84.18
68977;SHT31;56029;52.568;13.588;2023-07-20T07:25:12;17.07;83.67
68977;SHT31;56029;52.568;13.588;2023-07-20T07:27:38;17.28;84.15
68977;SHT31;56029;52.568;13.588;2023-07-20T07:30:04;17.46;83.35
68977;SHT31;56029;52.568;13.588;2023-07-20T07:32:31;17.51;81.66
68977;SHT31;56029;52.568;13.588;2023-07-20T07:34:56;17.43;80.78
68977;SHT31;56029;52.568;13.588;2023-07-20T07:37:24;17.53;81.61
68977;SHT31;56029;52.568;13.588;2023-07-20T07:39:49;17.59;81.56
68977;SHT31;56029;52.568;13.588;2023-07-20T07:42:15;17.59;80.36
68977;SHT31;56029;52.568;13.588;2023-07-20T07:44:40;17.59;79.56
68977;SHT31;56029;52.568;13.588;2023-07-20T07:47:06;17.65;79.37
68977;SHT31;56029;52.568;13.588;2023-07-20T07:49:32;17.86;79.94
68977;SHT31;56029;52.568;13.588;2023-07-20T07:51:57;18.01;80.34
68977;SHT31;56029;52.568;13.588;2023-07-20T07:54:23;18.24;80.07
68977;SHT31;56029;52.568;13.588;2023-07-20T07:56:48;18.28;79.16
68977;SHT31;56029;52.568;13.588;2023-07-20T07:59:14;18.26;77.26
68977;SHT31;56029;52.568;13.588;2023-07-20T08:01:40;18.39;77.39
68977;SHT31;56029;52.568;13.588;2023-07-20T08:04:05;18.46;79.02
68977;SHT31;56029;52.568;13.588;2023-07-20T08:06:31;18.42;76.81
68977;SHT31;56029;52.568;13.588;2023-07-20T08:08:56;18.59;77.41
68977;SHT31;56029;52.568;13.588;2023-07-20T08:11:23;18.72;76.35
68977;SHT31;56029;52.568;13.588;2023-07-20T08:13:48;18.66;75.57
68977;SHT31;56029;52.568;13.588;2023-07-20T08:16:14;18.94;76.96
68977;SHT31;56029;52.568;13.588;2023-07-20T08:18:39;18.80;74.79
68977;SHT31;56029;52.568;13.588;2023-07-20T08:21:05;18.79;76.51
68977;SHT31;56029;52.568;13.588;2023-07-20T08:23:31;19.08;76.39
68977;SHT31;56029;52.568;13.588;2023-07-20T08:25:56;19.27;75.60
68977;SHT31;56029;52.568;13.588;2023-07-20T08:28:22;19.27;75.18
68977;SHT31;56029;52.568;13.588;2023-07-20T08:30:49;19.03;74.38
68977;SHT31;56029;52.568;13.588;2023-07-20T08:33:16;18.69;74.22
68977;SHT31;56029;52.568;13.588;2023-07-20T08:35:43;18.74;75.52
68977;SHT31;56029;52.568;13.588;2023-07-20T08:38:08;18.97;75.89
68977;SHT31;56029;52.568;13.588;2023-07-20T08:40:39;19.13;75.70
68977;SHT31;56029;52.568;13.588;2023-07-20T08:43:05;19.41;74.04
68977;SHT31;56029;52.568;13.588;2023-07-20T08:45:33;19.66;73.09
68977;SHT31;56029;52.568;13.588;2023-07-20T08:48:00;19.34;72.98
68977;SHT31;56029;52.568;13.588;2023-07-20T08:50:28;19.52;73.99
68977;SHT31;56029;52.568;13.588;2023-07-20T08:52:57;19.36;71.60
68977;SHT31;56029;52.568;13.588;2023-07-20T08:55:23;19.25;72.96
68977;SHT31;56029;52.568;13.588;2023-07-20T08:57:50;19.17;73.27
68977;SHT31;56029;52.568;13.588;2023-07-20T09:00:19;19.15;73.96
68977;SHT31;56029;52.568;13.588;2023-07-20T09:02:46;19.03;73.16
68977;SHT31;56029;52.568;13.588;2023-07-20T09:05:12;19.14;73.34
68977;SHT31;56029;52.568;13.588;2023-07-20T09:07:40;19.30;72.30
68977;SHT31;56029;52.568;13.588;2023-07-20T09:10:06;19.24;72.68
68977;SHT31;56029;52.568;13.588;2023-07-20T09:12:35;19.28;70.89
68977;SHT31;56029;52.568;13.588;2023-07-20T09:15:01;19.14;72.22
68977;SHT31;56029;52.568;13.588;2023-07-20T09:17:27;19.17;72.62
68977;SHT31;56029;52.568;13.588;2023-07-20T09:19:53;19.32;70.45
68977;SHT31;56029;52.568;13.588;2023-07-20T09:22:19;19.65;71.37
68977;SHT31;56029;52.568;13.588;2023-07-20T09:24:44;19.54;70.86
68977;SHT31;56029;52.568;13.588;2023-07-20T09:27:10;19.55;70.04
68977;SHT31;56029;52.568;13.588;2023-07-20T09:29:49;19.47;70.20
68977;SHT31;56029;52.568;13.588;2023-07-20T09:32:18;19.55;69.86
68977;SHT31;56029;52.568;13.588;2023-07-20T09:34:45;19.44;69.42
68977;SHT31;56029;52.568;13.588;2023-07-20T09:37:10;19.90;69.25
68977;SHT31;56029;52.568;13.588;2023-07-20T09:39:45;20.61;69.74
68977;SHT31;56029;52.568;13.588;2023-07-20T09:42:12;20.30;66.31
68977;SHT31;56029;52.568;13.588;2023-07-20T09:44:43;20.36;67.20
68977;SHT31;56029;52.568;13.588;2023-07-20T09:47:09;20.26;67.54
68977;SHT31;56029;52.568;13.588;2023-07-20T09:49:41;20.12;67.03
68977;SHT31;56029;52.568;13.588;2023-07-20T09:52:11;20.10;68.55
68977;SHT31;56029;52.568;13.588;2023-07-20T09:54:38;20.03;68.80
68977;SHT31;56029;52.568;13.588;2023-07-20T09:57:07;19.72;67.39
68977;SHT31;56029;52.568;13.588;2023-07-20T09:59:33;19.27;67.91
68977;SHT31;56029;52.568;13.588;2023-07-20T10:02:01;18.60;75.21
68977;SHT31;56029;52.568;13.588;2023-07-20T10:04:28;17.93;77.61
68977;SHT31;56029;52.568;13.588;2023-07-20T10:06:55;17.73;78.07
68977;SHT31;56029;52.568;13.588;2023-07-20T10:09:22;17.71;79.15
68977;SHT31;56029;52.568;13.588;2023-07-20T10:11:50;17.83;78.65
68977;SHT31;56029;52.568;13.588;2023-07-20T10:14:19;18.08;78.03
68977;SHT31;56029;52.568;13.588;2023-07-20T10:16:54;18.29;77.87
68977;SHT31;56029;52.568;13.588;2023-07-20T10:19:27;18.53;76.61
68977;SHT31;56029;52.568;13.588;2023-07-20T10:22:10;18.74;75.67
68977;SHT31;56029;52.568;13.588;2023-07-20T10:24:36;18.93;75.30
68977;SHT31;56029;52.568;13.588;2023-07-20T10:27:04;19.07;74.91
68977;SHT31;56029;52.568;13.588;2023-07-20T10:29:31;19.13;74.44
68977;SHT31;56029;52.568;13.588;2023-07-20T10:31:57;19.03;73.19
68977;SHT31;56029;52.568;13.588;2023-07-20T10:34:23;18.84;73.27
68977;SHT31;56029;52.568;13.588;2023-07-20T10:36:49;18.92;73.56
68977;SHT31;56029;52.568;13.588;2023-07-20T10:39:28;19.14;71.94
68977;SHT31;56029;52.568;13.588;2023-07-20T10:42:02;19.27;71.25
68977;SHT31;56029;52.568;13.588;2023-07-20T10:44:29;19.28;70.75
68977;SHT31;56029;52.568;13.588;2023-07-20T10:47:02;19.30;71.08
68977;SHT31;56029;52.568;13.588;2023-07-20T10:49:33;19.21;70.82
68977;SHT31;56029;52.568;13.588;2023-07-20T10:52:00;19.38;69.99
68977;SHT31;56029;52.568;13.588;2023-07-20T10:56:55;19.96;69.58
68977;SHT31;56029;52.568;13.588;2023-07-20T11:01:54;19.87;67.74
68977;SHT31;56029;52.568;13.588;2023-07-20T11:07:06;20.10;68.96
68977;SHT31;56029;52.568;13.588;2023-07-20T11:09:35;20.13;68.96
68977;SHT31;56029;52.568;13.588;2023-07-20T11:12:17;20.06;69.11
68977;SHT31;56029;52.568;13.588;2023-07-20T11:15:03;20.13;68.57
68977;SHT31;56029;52.568;13.588;2023-07-20T11:17:30;20.16;68.66
68977;SHT31;56029;52.568;13.588;2023-07-20T11:19:57;19.96;68.73
68977;SHT31;56029;52.568;13.588;2023-07-20T11:22:23;20.20;68.92
68977;SHT31;56029;52.568;13.588;2023-07-20T11:24:49;19.90;68.66
68977;SHT31;56029;52.568;13.588;2023-07-20T11:27:15;20.55;69.66
68977;SHT31;56029;52.568;13.588;2023-07-20T11:29:40;20.48;68.40
68977;SHT31;56029;52.568;13.588;2023-07-20T11:32:07;20.77;68.24
68977;SHT31;56029;52.568;13.588;2023-07-20T11:34:33;20.84;66.92
68977;SHT31;56029;52.568;13.588;2023-07-20T11:37:00;21.13;67.28
68977;SHT31;56029;52.568;13.588;2023-07-20T11:39:25;21.05;66.19
68977;SHT31;56029;52.568;13.588;2023-07-20T11:41:53;20.94;65.04
68977;SHT31;56029;52.568;13.588;2023-07-20T11:44:21;20.72;65.31
68977;SHT31;56029;52.568;13.588;2023-07-20T11:47:11;20.58;66.38
68977;SHT31;56029;52.568;13.588;2023-07-20T11:49:39;20.60;66.90
68977;SHT31;56029;52.568;13.588;2023-07-20T11:52:06;20.81;65.64
68977;SHT31;56029;52.568;13.588;2023-07-20T11:54:32;20.95;66.02
68977;SHT31;56029;52.568;13.588;2023-07-20T11:57:01;21.09;65.75
68977;SHT31;56029;52.568;13.588;2023-07-20T11:59:26;20.94;65.79
68977;SHT31;56029;52.568;13.588;2023-07-20T12:01:52;20.96;65.93
68977;SHT31;56029;52.568;13.588;2023-07-20T12:04:17;20.81;65.34
68977;SHT31;56029;52.568;13.588;2023-07-20T12:06:45;20.58;66.20
68977;SHT31;56029;52.568;13.588;2023-07-20T12:09:14;20.55;67.15
68977;SHT31;56029;52.568;13.588;2023-07-20T12:11:43;20.31;67.65
68977;SHT31;56029;52.568;13.588;2023-07-20T12:14:09;19.79;69.37
68977;SHT31;56029;52.568;13.588;2023-07-20T12:16:36;19.34;72.96
68977;SHT31;56029;52.568;13.588;2023-07-20T12:19:08;19.31;73.45
68977;SHT31;56029;52.568;13.588;2023-07-20T12:21:34;19.31;74.21
68977;SHT31;56029;52.568;13.588;2023-07-20T12:24:02;19.24;73.12
68977;SHT31;56029;52.568;13.588;2023-07-20T12:26:29;19.38;72.62
68977;SHT31;56029;52.568;13.588;2023-07-20T12:28:54;19.50;71.19
68977;SHT31;56029;52.568;13.588;2023-07-20T12:31:21;19.59;70.90
68977;SHT31;56029;52.568;13.588;2023-07-20T12:33:48;19.68;70.63
68977;SHT31;56029;52.568;13.588;2023-07-20T12:36:14;19.79;70.73
68977;SHT31;56029;52.568;13.588;2023-07-20T12:38:39;19.79;70.24
68977;SHT31;56029;52.568;13.588;2023-07-20T12:41:07;19.58;69.45
68977;SHT31;56029;52.568;13.588;2023-07-20T12:43:33;19.45;70.04
68977;SHT31;56029;52.568;13.588;2023-07-20T12:45:59;19.72;69.62
68977;SHT31;56029;52.568;13.588;2023-07-20T12:48:25;19.75;67.96
68977;SHT31;56029;52.568;13.588;2023-07-20T12:50:51;19.75;68.47
68977;SHT31;56029;52.568;13.588;2023-07-20T12:53:17;19.87;68.34
68977;SHT31;56029;52.568;13.588;2023-07-20T12:55:42;19.85;67.81
68977;SHT31;56029;52.568;13.588;2023-07-20T12:58:08;20.13;67.65
68977;SHT31;56029;52.568;13.588;2023-07-20T13:00:34;20.19;67.35
68977;SHT31;56029;52.568;13.588;2023-07-20T13:03:00;19.99;65.37
68977;SHT31;56029;52.568;13.588;2023-07-20T13:05:31;20.03;66.51
68977;SHT31;56029;52.568;13.588;2023-07-20T13:07:57;20.05;66.25
68977;SHT31;56029;52.568;13.588;2023-07-20T13:10:24;20.00;63.47
68977;SHT31;56029;52.568;13.588;2023-07-20T13:12:49;20.08;64.93
68977;SHT31;56029;52.568;13.588;2023-07-20T13:15:16;20.27;63.20
68977;SHT31;56029;52.568;13.588;2023-07-20T13:17:41;20.13;62.33
68977;SHT31;56029;52.568;13.588;2023-07-20T13:20:09;20.27;62.55
68977;SHT31;56029;52.568;13.588;2023-07-20T13:22:39;20.31;62.99
68977;SHT31;56029;52.568;13.588;2023-07-20T13:25:06;20.69;63.07
68977;SHT31;56029;52.568;13.588;2023-07-20T13:27:32;20.79;60.71
68977;SHT31;56029;52.568;13.588;2023-07-20T13:29:58;20.65;59.61
68977;SHT31;56029;52.568;13.588;2023-07-20T13:32:24;20.78;60.10
68977;SHT31;56029;52.568;13.588;2023-07-20T13:34:49;21.10;61.33
68977;SHT31;56029;52.568;13.588;2023-07-20T13:37:15;21.16;59.67
68977;SHT31;56029;52.568;13.588;2023-07-20T13:39:41;21.23;57.74
68977;SHT31;56029;52.568;13.588;2023-07-20T13:42:07;21.30;58.10
68977;SHT31;56029;52.568;13.588;2023-07-20T13:44:34;21.19;57.81
68977;SHT31;56029;52.568;13.588;2023-07-20T13:47:01;21.35;58.87
68977;SHT31;56029;52.568;13.588;2023-07-20T13:49:27;21.40;55.92
68977;SHT31;56029;52.568;13.588;2023-07-20T13:51:53;21.35;56.20
68977;SHT31;56029;52.568;13.588;2023-07-20T13:54:18;21.37;56.27
68977;SHT31;56029;52.568;13.588;2023-07-20T13:56:44;21.37;55.34
68977;SHT31;56029;52.568;13.588;2023-07-20T13:59:09;21.67;55.98
68977;SHT31;56029;52.568;13.588;2023-07-20T14:01:35;21.95;56.29
68977;SHT31;56029;52.568;13.588;2023-07-20T14:04:01;21.98;54.57
68977;SHT31;56029;52.568;13.588;2023-07-20T14:06:31;22.04;53.91
68977;SHT31;56029;52.568;13.588;2023-07-20T14:08:57;22.06;53.85
68977;SHT31;56029;52.568;13.588;2023-07-20T14:11:23;22.28;54.11
68977;SHT31;56029;52.568;13.588;2023-07-20T14:13:52;22.12;52.00
68977;SHT31;56029;52.568;13.588;2023-07-20T14:16:21;22.08;52.38
68977;SHT31;56029;52.568;13.588;2023-07-20T14:18:48;22.01;52.31
68977;SHT31;56029;52.568;13.588;2023-07-20T14:21:19;21.90;52.80
68977;SHT31;56029;52.568;13.588;2023-07-20T14:23:48;22.02;52.97
68977;SHT31;56029;52.568;13.588;2023-07-20T14:26:15;21.95;54.10
68977;SHT31;56029;52.568;13.588;2023-07-20T14:28:41;21.95;52.98
68977;SHT31;56029;52.568;13.588;2023-07-20T14:31:07;21.93;53.21
68977;SHT31;56029;52.568;13.588;2023-07-20T14:33:33;21.87;53.88
68977;SHT31;56029;52.568;13.588;2023-07-20T14:35:59;21.60;53.81
68977;SHT31;56029;52.568;13.588;2023-07-20T14:38:28;21.27;54.38
68977;SHT31;56029;52.568;13.588;2023-07-20T14:40:53;21.13;54.38
68977;SHT31;56029;52.568;13.588;2023-07-20T14:43:19;21.06;55.68
68977;SHT31;56029;52.568;13.588;2023-07-20T14:45:45;21.20;55.50
68977;SHT31;56029;52.568;13.588;2023-07-20T14:48:11;21.39;53.69
68977;SHT31;56029;52.568;13.588;2023-07-20T14:50:36;21.56;52.99
68977;SHT31;56029;52.568;13.588;2023-07-20T14:53:02;21.73;52.63
68977;SHT31;56029;52.568;13.588;2023-07-20T14:55:28;22.01;52.27
68977;SHT31;56029;52.568;13.588;2023-07-20T14:57:54;21.93;51.28
68977;SHT31;56029;52.568;13.588;2023-07-20T15:00:19;22.02;51.86
68977;SHT31;56029;52.568;13.588;2023-07-20T15:02:45;22.04;52.56
68977;SHT31;56029;52.568;13.588;2023-07-20T15:05:11;22.06;52.67
68977;SHT31;56029;52.568;13.588;2023-07-20T15:07:37;21.98;51.80
68977;SHT31;56029;52.568;13.588;2023-07-20T15:10:04;22.00;52.11
68977;SHT31;56029;52.568;13.588;2023-07-20T15:12:30;22.12;53.50
68977;SHT31;56029;52.568;13.588;2023-07-20T15:15:07;22.02;52.37
68977;SHT31;56029;52.568;13.588;2023-07-20T15:17:33;22.09;52.70
68977;SHT31;56029;52.568;13.588;2023-07-20T15:19:59;22.04;51.49
68977;SHT31;56029;52.568;13.588;2023-07-20T15:22:25;22.01;51.49